Terminal Aerodrome Forecast
Issued by NWS Pueblo, CO

Home | Current Version | Previous Version | Text Only | Print | Product List | Glossary On
Versions: 1 2 3 4 5 6 7 8 9 10 11 12 13 14 15 16 17 18 19 20 21 22 23 24 25 26 27 28 29 30 31 32 33 34 35 36
000
FTUS45 KPUB 040130 AAB
TAFPUB
TAF AMD
KPUB 040130Z 0402/0424 34012KT P6SM SCT100 BKN150
     FM040300 32010KT P6SM SCT120 BKN200
     FM040600 VRB05KT P6SM SCT150 BKN250
     FM041600 15010KT P6SM SCT100 SCT200
     FM042200 25012KT P6SM VCTS SCT100CB BKN150=

USA.gov is the U.S. government's official web portal to all federal, state and local government web resources and services.